Time;durP1;ratioP1;P1;durP2;ratioP2;P2;SDS_P1;SDS_P2;PMS_P1;PMS_P2;Temp;Humidity;BMP_temperature;BMP_pressure;BME280_temperature;BME280_humidity;BME280_pressure;Samples;Min_cycle;Max_cycle;Signal;HPM_P1;HPM_P2
2021/08/26 00:00:57;;;;;;;4.22;1.60;;;21.70;53.80;;;;;;5052969;28;20116;-69
2021/08/26 00:06:14;;;;;;;3.58;1.17;;;21.70;53.80;;;;;;5053412;28;20460;-69
2021/08/26 00:08:40;;;;;;;2.88;1.20;;;21.70;53.90;;;;;;5052876;28;20362;-69
2021/08/26 00:11:05;;;;;;;4.82;1.40;;;21.70;53.90;;;;;;5052753;28;20473;-69
2021/08/26 00:13:31;;;;;;;2.85;1.30;;;21.70;53.90;;;;;;5052785;28;20036;-69
2021/08/26 00:15:58;;;;;;;3.00;1.30;;;21.70;53.90;;;;;;5052811;28;20036;-69
2021/08/26 00:18:24;;;;;;;2.58;1.17;;;21.60;54.00;;;;;;5052742;28;20025;-69
2021/08/26 00:20:53;;;;;;;3.25;1.40;;;21.60;54.10;;;;;;5052771;28;20044;-68
2021/08/26 00:23:22;;;;;;;3.63;1.40;;;21.60;54.00;;;;;;5052622;28;20017;-69
2021/08/26 00:25:48;;;;;;;3.72;1.50;;;21.60;54.10;;;;;;5052718;28;20484;-69
2021/08/26 00:28:14;;;;;;;2.83;1.20;;;21.60;54.10;;;;;;5052656;28;20117;-68
2021/08/26 00:30:39;;;;;;;3.00;1.20;;;21.60;54.10;;;;;;5052587;28;20100;-69
2021/08/26 00:33:05;;;;;;;4.38;1.67;;;21.60;54.20;;;;;;5052557;28;20052;-69
2021/08/26 00:35:31;;;;;;;3.97;1.40;;;21.60;54.20;;;;;;5034501;28;20083;-69
2021/08/26 00:37:56;;;;;;;3.58;1.38;;;21.60;54.20;;;;;;5052551;28;20036;-69
2021/08/26 00:40:22;;;;;;;4.15;1.60;;;21.60;54.30;;;;;;5052304;28;20040;-69
2021/08/26 00:42:49;;;;;;;3.22;1.50;;;21.60;54.30;;;;;;5052449;28;20096;-68
2021/08/26 00:45:14;;;;;;;4.03;1.20;;;21.60;54.30;;;;;;5052505;28;20538;-69
2021/08/26 00:47:44;;;;;;;2.47;1.17;;;21.50;54.40;;;;;;5052397;28;20033;-69
2021/08/26 00:50:11;;;;;;;2.65;1.17;;;21.50;54.30;;;;;;5052400;28;20025;-69
2021/08/26 00:52:37;;;;;;;3.22;1.20;;;21.50;54.30;;;;;;5052378;28;20017;-69
2021/08/26 00:55:05;;;;;;;4.18;1.20;;;21.50;54.30;;;;;;5052414;28;20025;-69
2021/08/26 00:57:31;;;;;;;3.38;1.40;;;21.50;54.40;;;;;;5052230;28;20101;-69
2021/08/26 00:59:56;;;;;;;2.63;1.27;;;21.50;54.40;;;;;;5052259;28;20476;-70
2021/08/26 01:03:01;;;;;;;2.85;1.20;;;21.50;54.40;;;;;;5052394;28;20036;-70
2021/08/26 01:05:50;;;;;;;2.97;1.30;;;21.50;54.40;;;;;;5052440;28;20028;-70
2021/08/26 01:08:31;;;;;;;3.45;1.38;;;21.50;54.40;;;;;;5052011;28;20057;-70
2021/08/26 01:10:58;;;;;;;2.35;1.10;;;21.50;54.40;;;;;;5052293;28;20369;-69
2021/08/26 01:13:29;;;;;;;2.70;1.38;;;21.50;54.40;;;;;;5052372;28;20136;-70
2021/08/26 01:16:05;;;;;;;3.63;1.50;;;21.50;54.50;;;;;;5050956;28;20108;-70
2021/08/26 01:18:33;;;;;;;3.08;1.23;;;21.50;54.60;;;;;;5052156;28;20051;-69
2021/08/26 01:20:59;;;;;;;2.97;1.30;;;21.50;54.60;;;;;;5052269;28;20121;-71
2021/08/26 01:23:27;;;;;;;3.35;1.40;;;21.50;54.70;;;;;;5050986;28;20104;-69
2021/08/26 01:25:53;;;;;;;3.13;1.30;;;21.50;54.60;;;;;;5053188;28;20040;-69
2021/08/26 01:28:19;;;;;;;4.30;1.50;;;21.50;54.60;;;;;;5055831;28;20368;-70
2021/08/26 01:30:45;;;;;;;2.38;1.05;;;21.50;54.70;;;;;;5055735;28;20532;-69
2021/08/26 01:33:11;;;;;;;3.72;1.33;;;21.50;54.70;;;;;;5055670;28;20123;-70
2021/08/26 01:35:37;;;;;;;2.80;1.30;;;21.40;54.70;;;;;;5055536;28;20052;-69
2021/08/26 01:38:04;;;;;;;3.95;1.35;;;21.50;54.70;;;;;;5055645;28;20029;-69
2021/08/26 01:40:40;;;;;;;2.72;1.17;;;21.50;54.70;;;;;;5055508;28;20048;-70
2021/08/26 01:43:11;;;;;;;2.72;1.25;;;21.50;54.70;;;;;;5055593;28;20025;-69
2021/08/26 01:45:38;;;;;;;3.25;1.33;;;21.50;54.80;;;;;;5055517;28;20029;-69
2021/08/26 01:48:04;;;;;;;2.72;1.27;;;21.40;54.80;;;;;;5055706;28;20020;-69
2021/08/26 01:50:30;;;;;;;3.28;1.13;;;21.50;54.80;;;;;;5055367;28;20532;-69
2021/08/26 01:52:55;;;;;;;2.40;1.10;;;21.40;54.80;;;;;;5055425;28;20105;-70
2021/08/26 01:55:22;;;;;;;3.60;1.33;;;21.50;54.90;;;;;;5055340;28;20464;-70
2021/08/26 01:57:47;;;;;;;3.42;1.30;;;21.40;54.80;;;;;;5055468;28;20100;-69
2021/08/26 02:00:14;;;;;;;2.97;1.30;;;21.40;54.90;;;;;;5054137;28;20120;-69
2021/08/26 02:02:39;;;;;;;3.65;1.08;;;21.40;54.80;;;;;;5055121;28;20021;-70
2021/08/26 02:05:05;;;;;;;3.00;1.38;;;21.40;54.90;;;;;;5055300;28;20025;-69
2021/08/26 02:07:30;;;;;;;2.72;1.13;;;21.40;54.90;;;;;;5055061;28;20048;-69
2021/08/26 02:09:56;;;;;;;4.47;1.30;;;21.40;55.00;;;;;;5055369;28;20059;-69
2021/08/26 02:12:21;;;;;;;4.43;1.42;;;21.40;55.00;;;;;;5055038;28;20017;-69
2021/08/26 02:14:47;;;;;;;4.55;1.20;;;21.40;55.00;;;;;;5054911;28;20108;-69
2021/08/26 02:17:12;;;;;;;2.70;1.10;;;21.40;55.10;;;;;;5054901;28;20021;-69
2021/08/26 02:19:38;;;;;;;3.22;1.30;;;21.40;55.00;;;;;;5054808;28;20120;-69
2021/08/26 02:22:03;;;;;;;3.63;1.58;;;21.40;55.10;;;;;;5054749;28;20025;-69
2021/08/26 02:24:30;;;;;;;4.80;1.25;;;21.40;55.10;;;;;;5054967;28;20021;-69
2021/08/26 02:26:55;;;;;;;2.60;1.25;;;21.40;55.10;;;;;;5053464;28;20055;-70
2021/08/26 02:29:21;;;;;;;2.78;1.10;;;21.40;55.10;;;;;;5054889;28;20485;-70
2021/08/26 02:31:46;;;;;;;2.72;1.08;;;21.40;55.20;;;;;;5054641;28;20496;-70
2021/08/26 02:34:12;;;;;;;5.65;1.92;;;21.30;55.20;;;;;;5054512;28;20502;-70
2021/08/26 02:36:38;;;;;;;3.13;1.30;;;21.30;55.20;;;;;;5053928;28;20079;-69
2021/08/26 02:39:03;;;;;;;3.40;1.23;;;21.40;55.20;;;;;;5053924;28;20032;-68
2021/08/26 02:41:29;;;;;;;4.07;1.30;;;21.30;55.20;;;;;;5054346;28;20025;-70
2021/08/26 02:43:54;;;;;;;2.53;1.15;;;21.30;55.30;;;;;;5054584;28;20116;-70
2021/08/26 02:46:20;;;;;;;2.30;1.20;;;21.30;55.30;;;;;;5054302;28;20021;-70
2021/08/26 02:48:45;;;;;;;3.17;1.35;;;21.30;55.30;;;;;;5054298;28;20063;-70
2021/08/26 02:51:11;;;;;;;2.15;1.05;;;21.30;55.20;;;;;;5054351;28;20025;-69
2021/08/26 02:53:37;;;;;;;2.53;1.20;;;21.30;55.30;;;;;;5054422;28;20017;-70
2021/08/26 02:56:02;;;;;;;4.40;1.40;;;21.30;55.30;;;;;;5054109;28;20033;-70
2021/08/26 02:58:28;;;;;;;3.60;1.40;;;21.30;55.40;;;;;;5054177;28;20021;-69
2021/08/26 03:00:54;;;;;;;2.50;0.82;;;21.30;55.40;;;;;;5054065;28;20029;-69
2021/08/26 03:03:19;;;;;;;2.42;0.95;;;21.30;55.40;;;;;;5052685;28;20025;-69
2021/08/26 03:05:45;;;;;;;2.25;1.05;;;21.30;55.40;;;;;;5053869;28;20418;-70
2021/08/26 03:08:10;;;;;;;2.25;0.98;;;21.20;55.40;;;;;;5053904;28;20029;-69
2021/08/26 03:10:36;;;;;;;2.47;0.93;;;21.30;55.40;;;;;;5053897;28;20032;-70
2021/08/26 03:13:03;;;;;;;3.95;1.20;;;21.20;55.40;;;;;;5053763;28;20143;-69
2021/08/26 03:15:28;;;;;;;3.58;1.27;;;21.30;55.40;;;;;;5053720;28;20029;-69
2021/08/26 03:17:54;;;;;;;2.70;1.30;;;21.20;55.50;;;;;;5052385;28;20094;-69
2021/08/26 03:20:20;;;;;;;2.88;1.20;;;21.20;55.50;;;;;;5053828;28;20043;-70
2021/08/26 03:22:47;;;;;;;4.03;1.20;;;21.20;55.50;;;;;;5053841;28;20021;-70
2021/08/26 03:25:13;;;;;;;2.90;1.10;;;21.30;55.60;;;;;;5053755;28;20021;-70
2021/08/26 03:27:38;;;;;;;2.88;1.10;;;21.20;55.60;;;;;;5053697;28;20020;-69
2021/08/26 03:30:05;;;;;;;2.55;1.13;;;21.20;55.60;;;;;;5053448;28;20025;-69
2021/08/26 03:32:31;;;;;;;3.55;1.30;;;21.20;55.60;;;;;;5053361;28;20086;-69
2021/08/26 03:34:56;;;;;;;2.67;1.10;;;21.20;55.60;;;;;;5053491;28;20013;-69
2021/08/26 03:37:22;;;;;;;3.65;1.30;;;21.20;55.70;;;;;;5053150;28;20052;-70
2021/08/26 03:39:47;;;;;;;2.55;1.20;;;21.20;55.70;;;;;;5053247;28;20128;-70
2021/08/26 03:42:13;;;;;;;2.90;1.20;;;21.20;55.70;;;;;;5053208;28;20373;-69
2021/08/26 03:44:38;;;;;;;2.65;0.95;;;21.20;55.60;;;;;;5053281;28;20032;-69
2021/08/26 03:47:04;;;;;;;2.85;1.23;;;21.20;55.70;;;;;;5053167;28;20021;-69
2021/08/26 03:49:29;;;;;;;3.10;1.27;;;21.20;55.70;;;;;;5051655;28;20273;-70
2021/08/26 03:51:56;;;;;;;2.90;1.55;;;21.20;55.70;;;;;;5053036;28;20021;-69
2021/08/26 03:54:21;;;;;;;2.65;1.20;;;21.20;55.70;;;;;;5053052;28;20457;-70
2021/08/26 03:56:47;;;;;;;3.28;1.40;;;21.20;55.70;;;;;;5052943;28;20036;-69
2021/08/26 03:59:13;;;;;;;5.25;1.50;;;21.10;55.80;;;;;;5051606;28;20044;-69
2021/08/26 04:01:39;;;;;;;2.60;1.10;;;21.10;55.80;;;;;;5052972;28;20104;-70
2021/08/26 04:04:05;;;;;;;2.80;1.10;;;21.10;55.80;;;;;;5053204;28;20104;-69
2021/08/26 04:06:30;;;;;;;2.72;0.93;;;21.10;55.80;;;;;;5052953;28;20100;-69
2021/08/26 04:08:56;;;;;;;3.78;1.08;;;21.10;55.80;;;;;;5051590;28;20029;-69
2021/08/26 04:11:21;;;;;;;2.58;1.13;;;21.10;55.80;;;;;;5052723;28;20480;-69
2021/08/26 04:13:48;;;;;;;2.72;1.05;;;21.10;55.80;;;;;;5052838;28;20024;-70
2021/08/26 04:16:13;;;;;;;3.17;1.30;;;21.10;55.80;;;;;;5052897;28;20021;-69
2021/08/26 04:18:39;;;;;;;2.92;1.30;;;21.10;55.90;;;;;;5052954;28;20036;-69
2021/08/26 04:21:04;;;;;;;2.10;0.95;;;21.10;55.90;;;;;;5053018;28;20025;-69
2021/08/26 04:23:30;;;;;;;2.45;1.10;;;21.10;55.90;;;;;;5052642;28;20029;-69
2021/08/26 04:25:55;;;;;;;3.95;1.08;;;21.10;55.90;;;;;;5051356;28;20027;-69
2021/08/26 04:28:21;;;;;;;3.28;1.20;;;21.10;55.90;;;;;;5051261;28;20154;-69
2021/08/26 04:30:46;;;;;;;3.05;1.23;;;21.10;55.80;;;;;;5052735;28;20029;-69
2021/08/26 04:33:12;;;;;;;3.50;1.20;;;21.00;55.80;;;;;;5052702;28;20033;-69
2021/08/26 04:35:37;;;;;;;4.03;1.40;;;21.10;55.90;;;;;;5051185;28;20040;-69
2021/08/26 04:38:03;;;;;;;2.70;1.20;;;21.10;55.90;;;;;;5052509;28;20561;-69
2021/08/26 04:40:28;;;;;;;3.47;1.35;;;21.10;55.90;;;;;;5052325;28;20436;-69
2021/08/26 04:42:54;;;;;;;3.42;1.15;;;21.00;55.90;;;;;;5052467;28;20052;-70
2021/08/26 04:45:19;;;;;;;1.80;0.90;;;21.00;55.90;;;;;;5052454;28;20070;-69
2021/08/26 04:47:45;;;;;;;5.85;1.77;;;21.00;55.90;;;;;;5052622;28;20045;-69
2021/08/26 04:50:11;;;;;;;4.28;1.30;;;21.00;55.90;;;;;;5052555;28;20032;-70
2021/08/26 04:52:36;;;;;;;3.28;1.33;;;21.00;55.90;;;;;;5051220;28;20025;-69
2021/08/26 04:55:02;;;;;;;4.70;1.23;;;21.00;55.90;;;;;;5052562;28;20025;-70
2021/08/26 04:57:28;;;;;;;2.55;1.20;;;21.00;56.00;;;;;;5052498;28;20029;-69
2021/08/26 04:59:53;;;;;;;4.80;1.40;;;21.00;56.00;;;;;;5052592;28;20033;-69
2021/08/26 05:02:19;;;;;;;4.45;1.88;;;21.00;56.00;;;;;;5055777;28;20013;-70
2021/08/26 05:04:44;;;;;;;3.25;1.20;;;21.00;56.00;;;;;;5056285;28;20082;-69
2021/08/26 05:07:10;;;;;;;3.75;0.93;;;21.00;56.00;;;;;;5056249;28;20025;-69
2021/08/26 05:09:36;;;;;;;2.55;0.95;;;21.00;56.00;;;;;;5056214;28;20021;-69
2021/08/26 05:12:03;;;;;;;2.88;1.27;;;21.00;56.00;;;;;;5056177;28;20155;-69
2021/08/26 05:14:31;;;;;;;5.43;1.40;;;21.00;56.00;;;;;;5056218;28;20107;-69
2021/08/26 05:16:58;;;;;;;2.30;1.10;;;21.00;56.00;;;;;;5055012;28;20025;-69
2021/08/26 05:19:24;;;;;;;2.97;1.33;;;21.00;56.00;;;;;;5055851;28;20094;-69
2021/08/26 05:21:50;;;;;;;3.03;1.15;;;21.00;56.00;;;;;;5055965;28;20372;-69
2021/08/26 05:24:15;;;;;;;4.55;1.38;;;21.00;56.00;;;;;;5055558;28;20026;-69
2021/08/26 05:26:41;;;;;;;3.30;1.15;;;21.00;56.00;;;;;;5055763;28;20021;-69
2021/08/26 05:29:06;;;;;;;3.35;1.08;;;21.00;56.00;;;;;;5056009;28;20526;-69
2021/08/26 05:31:32;;;;;;;3.42;1.05;;;21.00;56.00;;;;;;5055695;28;20029;-69
2021/08/26 05:33:57;;;;;;;5.70;1.30;;;21.00;56.10;;;;;;5055612;28;20108;-69
2021/08/26 05:36:23;;;;;;;3.15;0.95;;;21.00;56.00;;;;;;5054143;28;20053;-69
2021/08/26 05:38:48;;;;;;;3.28;1.20;;;21.00;56.00;;;;;;5055465;28;20017;-69
2021/08/26 05:41:14;;;;;;;2.80;0.90;;;21.00;56.00;;;;;;5055469;28;20032;-69
2021/08/26 05:43:39;;;;;;;3.10;1.20;;;21.00;56.00;;;;;;5055437;28;20043;-69
2021/08/26 05:46:06;;;;;;;3.97;1.23;;;21.00;56.00;;;;;;5055403;28;20037;-69
2021/08/26 05:48:32;;;;;;;3.78;1.23;;;21.00;56.00;;;;;;5055826;28;20025;-69
2021/08/26 05:50:57;;;;;;;3.80;1.30;;;21.00;56.00;;;;;;5055370;28;20032;-69
2021/08/26 05:53:23;;;;;;;2.83;1.13;;;21.00;56.10;;;;;;5055242;28;20028;-69
2021/08/26 05:55:50;;;;;;;3.17;1.30;;;21.00;56.00;;;;;;5055428;28;20057;-69
2021/08/26 05:58:16;;;;;;;4.28;1.20;;;21.00;56.00;;;;;;5055135;28;20025;-69
2021/08/26 06:00:42;;;;;;;3.55;1.10;;;21.00;56.10;;;;;;5055140;28;20044;-69
2021/08/26 06:03:07;;;;;;;2.85;1.08;;;21.00;56.10;;;;;;5054970;28;20025;-70
2021/08/26 06:05:33;;;;;;;3.53;1.17;;;21.00;56.10;;;;;;5053902;28;20059;-69
2021/08/26 06:07:58;;;;;;;4.00;1.17;;;21.00;56.10;;;;;;5054886;28;20112;-70
2021/08/26 06:10:23;;;;;;;2.47;1.00;;;21.00;56.10;;;;;;5054836;28;20025;-69
2021/08/26 06:12:49;;;;;;;3.55;1.00;;;21.00;56.10;;;;;;5054683;28;20028;-69
2021/08/26 06:15:15;;;;;;;3.97;1.20;;;21.00;56.10;;;;;;5053424;28;20380;-69
2021/08/26 06:17:40;;;;;;;2.97;1.17;;;21.00;56.10;;;;;;5054685;28;20029;-70
2021/08/26 06:20:09;;;;;;;4.18;1.35;;;21.00;56.10;;;;;;5054657;28;20037;-69
2021/08/26 06:22:34;;;;;;;2.38;1.00;;;21.00;56.10;;;;;;5054488;28;20032;-69
2021/08/26 06:25:00;;;;;;;3.97;1.20;;;21.00;56.10;;;;;;5054635;28;20033;-70
2021/08/26 06:27:26;;;;;;;3.90;1.13;;;21.00;56.10;;;;;;5054638;28;20025;-69
2021/08/26 06:29:51;;;;;;;4.22;1.42;;;21.00;56.10;;;;;;5054552;28;20021;-69
2021/08/26 06:32:17;;;;;;;2.63;1.15;;;21.00;56.10;;;;;;5054478;28;20017;-69
2021/08/26 06:34:43;;;;;;;4.43;1.20;;;21.00;56.20;;;;;;5054306;28;20074;-69
2021/08/26 06:37:09;;;;;;;3.10;1.17;;;21.00;56.20;;;;;;5054185;28;20049;-69
2021/08/26 06:39:34;;;;;;;4.47;1.35;;;21.00;56.20;;;;;;5054342;28;20048;-69
2021/08/26 06:42:00;;;;;;;2.72;1.30;;;21.00;56.10;;;;;;5054266;28;20021;-69
2021/08/26 06:44:25;;;;;;;3.72;1.25;;;21.00;56.20;;;;;;5054313;28;20108;-70
2021/08/26 06:46:51;;;;;;;3.92;1.40;;;21.00;56.20;;;;;;5054225;28;20025;-69
2021/08/26 06:49:17;;;;;;;3.72;1.20;;;21.00;56.20;;;;;;5054084;28;20029;-69
2021/08/26 06:51:42;;;;;;;4.25;1.10;;;21.00;56.20;;;;;;5053990;28;20108;-69
2021/08/26 06:54:07;;;;;;;3.05;1.10;;;21.00;56.20;;;;;;5054101;28;20037;-69
2021/08/26 06:56:33;;;;;;;2.40;1.10;;;21.00;56.20;;;;;;5052663;28;20025;-69
2021/08/26 06:58:59;;;;;;;3.22;1.30;;;21.00;56.10;;;;;;5053920;28;20384;-69
2021/08/26 07:01:24;;;;;;;3.03;1.00;;;21.00;56.10;;;;;;5054068;28;20029;-69
2021/08/26 07:03:52;;;;;;;4.82;1.35;;;21.00;56.10;;;;;;5053921;28;20017;-70
2021/08/26 07:06:18;;;;;;;3.95;1.40;;;21.10;56.10;;;;;;5053795;28;20481;-69
2021/08/26 07:08:44;;;;;;;3.92;1.20;;;21.10;56.10;;;;;;5053733;28;20055;-67
2021/08/26 07:11:09;;;;;;;4.05;1.10;;;21.10;56.00;;;;;;5053736;28;20113;-69
2021/08/26 07:13:35;;;;;;;2.65;1.08;;;21.10;56.00;;;;;;5051397;28;20021;-69
2021/08/26 07:16:01;;;;;;;2.53;1.10;;;21.10;56.00;;;;;;5051345;28;20025;-72
2021/08/26 07:18:28;;;;;;;3.15;1.17;;;21.10;56.00;;;;;;5052634;28;20020;-69
2021/08/26 07:20:54;;;;;;;3.80;1.60;;;21.10;56.00;;;;;;5052743;28;20032;-72
2021/08/26 07:23:20;;;;;;;4.00;1.15;;;21.10;56.00;;;;;;5052384;28;20362;-73
2021/08/26 07:25:46;;;;;;;4.93;1.00;;;21.10;56.00;;;;;;5052530;28;20112;-74
2021/08/26 07:28:12;;;;;;;5.18;1.30;;;21.10;56.00;;;;;;5052474;28;20104;-74
2021/08/26 07:30:38;;;;;;;3.83;1.20;;;21.10;56.00;;;;;;5052637;28;20025;-73
2021/08/26 07:33:04;;;;;;;3.05;1.05;;;21.10;56.00;;;;;;5052782;28;20029;-71
2021/08/26 07:35:29;;;;;;;4.25;1.40;;;21.10;56.00;;;;;;5052725;28;20048;-71
2021/08/26 07:37:55;;;;;;;5.03;1.20;;;21.10;56.00;;;;;;5052091;28;20059;-71
2021/08/26 07:40:20;;;;;;;3.65;1.30;;;21.10;56.10;;;;;;5051420;28;20041;-73
2021/08/26 07:42:46;;;;;;;2.40;1.02;;;21.10;56.10;;;;;;5052208;28;20512;-71
2021/08/26 07:45:11;;;;;;;5.15;1.33;;;21.10;56.10;;;;;;5052493;28;20040;-71
2021/08/26 07:47:37;;;;;;;4.93;1.20;;;21.10;56.10;;;;;;5052026;28;20092;-71
2021/08/26 07:50:05;;;;;;;3.70;1.10;;;21.10;56.10;;;;;;5052646;28;20039;-72
2021/08/26 07:52:31;;;;;;;5.95;1.58;;;21.10;56.10;;;;;;5052071;28;20461;-72
2021/08/26 07:54:57;;;;;;;3.80;1.30;;;21.10;56.20;;;;;;5052255;28;20025;-72
2021/08/26 07:57:22;;;;;;;2.15;0.90;;;21.10;56.20;;;;;;5052362;28;20082;-73
2021/08/26 07:59:48;;;;;;;3.55;1.17;;;21.10;56.20;;;;;;5051541;28;20044;-71
2021/08/26 08:02:14;;;;;;;3.15;1.30;;;21.20;56.10;;;;;;5051875;28;20104;-71
2021/08/26 08:04:40;;;;;;;3.47;1.20;;;21.20;56.10;;;;;;5051728;28;20116;-71
2021/08/26 08:07:06;;;;;;;3.22;1.20;;;21.20;56.10;;;;;;5050764;28;20388;-71
2021/08/26 08:09:33;;;;;;;4.55;1.73;;;21.30;56.00;;;;;;5051653;28;20017;-69
2021/08/26 08:11:59;;;;;;;3.55;1.10;;;21.20;56.00;;;;;;5050819;28;20069;-70
2021/08/26 08:14:26;;;;;;;3.15;1.38;;;21.30;56.00;;;;;;5051655;28;20017;-69
2021/08/26 08:16:51;;;;;;;4.35;1.50;;;21.30;56.00;;;;;;5051925;28;20033;-69
2021/08/26 08:19:17;;;;;;;3.25;1.08;;;21.30;56.00;;;;;;5051452;28;20037;-72
2021/08/26 08:21:42;;;;;;;4.03;1.40;;;21.30;55.90;;;;;;5051052;28;20075;-70
2021/08/26 08:24:08;;;;;;;4.28;1.15;;;21.30;55.90;;;;;;5050462;28;20029;-70
2021/08/26 08:26:33;;;;;;;4.43;1.25;;;21.30;55.90;;;;;;5051836;28;20033;-70
2021/08/26 08:28:59;;;;;;;3.22;1.10;;;21.30;55.90;;;;;;5051590;28;20043;-70
2021/08/26 08:31:25;;;;;;;2.50;0.98;;;21.30;55.90;;;;;;5051251;28;20079;-70
2021/08/26 08:33:50;;;;;;;3.05;1.10;;;21.40;55.80;;;;;;5051298;28;20025;-71
2021/08/26 08:36:17;;;;;;;5.20;1.30;;;21.40;55.80;;;;;;5053630;28;20057;-69
2021/08/26 08:38:42;;;;;;;8.43;1.85;;;21.40;55.80;;;;;;5054711;28;20060;-71
2021/08/26 08:41:08;;;;;;;3.83;1.50;;;21.40;55.80;;;;;;5055531;28;20520;-72
2021/08/26 08:43:36;;;;;;;3.55;1.30;;;21.40;55.70;;;;;;5055813;28;20456;-72
2021/08/26 08:46:03;;;;;;;4.07;1.40;;;21.40;55.70;;;;;;5055758;28;20021;-70
2021/08/26 08:48:33;;;;;;;4.15;1.25;;;21.40;55.70;;;;;;5055659;28;20436;-72
2021/08/26 08:51:00;;;;;;;4.03;1.17;;;21.40;55.70;;;;;;5055045;28;20423;-72
2021/08/26 08:53:25;;;;;;;6.15;1.27;;;21.50;55.70;;;;;;5055340;28;20025;-74
2021/08/26 08:55:52;;;;;;;3.72;1.20;;;21.40;55.80;;;;;;5055785;28;20036;-72
2021/08/26 08:58:18;;;;;;;6.13;1.55;;;21.50;55.80;;;;;;5055919;28;20029;-72
2021/08/26 09:00:43;;;;;;;9.90;1.75;;;21.50;55.90;;;;;;5055767;28;20477;-70
2021/08/26 09:03:09;;;;;;;4.68;1.75;;;21.40;56.10;;;;;;5055192;28;20033;-68
2021/08/26 09:05:50;;;;;;;3.88;1.20;;;21.50;56.00;;;;;;5055465;28;20384;-69
2021/08/26 09:08:16;;;;;;;5.30;1.33;;;21.50;55.90;;;;;;5055221;28;20025;-68
2021/08/26 09:10:42;;;;;;;5.00;1.20;;;21.50;55.90;;;;;;5054100;28;20017;-70
2021/08/26 09:13:08;;;;;;;3.08;1.00;;;21.50;55.90;;;;;;5054527;28;20029;-70
2021/08/26 09:15:34;;;;;;;2.97;1.17;;;21.50;55.90;;;;;;5054948;28;20021;-71
2021/08/26 09:18:11;;;;;;;4.80;1.40;;;21.50;55.80;;;;;;5055062;28;20437;-71
2021/08/26 09:20:57;;;;;;;4.28;1.30;;;21.50;55.80;;;;;;5055002;28;20059;-71
2021/08/26 09:23:28;;;;;;;2.78;1.10;;;21.50;55.90;;;;;;5053070;28;20079;-72
2021/08/26 09:25:55;;;;;;;3.63;1.40;;;21.50;55.80;;;;;;5055050;28;20025;-69
2021/08/26 09:28:31;;;;;;;3.70;1.17;;;21.50;55.90;;;;;;5055082;28;20056;-69
2021/08/26 09:31:15;;;;;;;5.47;1.65;;;21.50;55.90;;;;;;5054786;28;20021;-68
2021/08/26 09:33:57;;;;;;;4.13;1.40;;;21.50;55.90;;;;;;5054328;28;20049;-69
2021/08/26 09:36:28;;;;;;;3.97;1.30;;;21.50;55.90;;;;;;5054731;28;20188;-68
2021/08/26 09:38:57;;;;;;;4.47;1.30;;;21.50;55.90;;;;;;5054765;28;20028;-69
2021/08/26 09:41:40;;;;;;;4.70;1.33;;;21.50;55.90;;;;;;5054777;28;20029;-69
2021/08/26 09:44:14;;;;;;;5.78;1.40;;;21.50;55.90;;;;;;5054413;28;20036;-73
2021/08/26 09:46:40;;;;;;;4.38;1.33;;;21.50;55.90;;;;;;5053928;28;20022;-70
2021/08/26 09:49:08;;;;;;;4.72;1.35;;;21.50;55.90;;;;;;5054736;28;20029;-67
2021/08/26 09:51:34;;;;;;;5.63;1.40;;;21.50;55.90;;;;;;5054496;28;20025;-73
2021/08/26 09:54:00;;;;;;;5.45;1.23;;;21.50;55.90;;;;;;5054302;28;20651;-70
2021/08/26 09:56:38;;;;;;;5.07;1.17;;;21.60;55.90;;;;;;5054551;28;20337;-72
2021/08/26 09:59:05;;;;;;;3.85;1.42;;;21.50;55.90;;;;;;5054542;28;20103;-67
2021/08/26 10:01:31;;;;;;;6.22;1.98;;;21.60;56.00;;;;;;5036862;28;20118;-67
2021/08/26 10:03:57;;;;;;;5.15;1.63;;;21.60;55.90;;;;;;5053627;28;20021;-70
2021/08/26 10:06:23;;;;;;;3.70;1.02;;;21.60;56.00;;;;;;5054338;28;20389;-68
2021/08/26 10:08:49;;;;;;;5.35;1.30;;;21.60;56.00;;;;;;5054355;28;20036;-71
2021/08/26 10:11:21;;;;;;;2.95;1.20;;;21.60;55.90;;;;;;5054342;28;20032;-70
2021/08/26 10:13:48;;;;;;;9.18;1.50;;;21.60;56.00;;;;;;5054374;28;20040;-68
2021/08/26 10:16:14;;;;;;;4.70;1.33;;;21.60;56.00;;;;;;5053742;28;20495;-72
2021/08/26 10:18:40;;;;;;;6.30;1.30;;;21.60;56.00;;;;;;5053973;28;20078;-70
2021/08/26 10:21:08;;;;;;;7.13;1.45;;;21.60;56.00;;;;;;5051940;28;20079;-70
2021/08/26 10:23:36;;;;;;;4.60;1.48;;;21.60;56.00;;;;;;5050523;28;20029;-71
2021/08/26 10:26:05;;;;;;;4.63;1.30;;;21.60;56.00;;;;;;5051053;28;20115;-71
2021/08/26 10:28:33;;;;;;;2.63;1.02;;;21.60;56.00;;;;;;5051777;28;20017;-71
2021/08/26 10:30:59;;;;;;;5.95;1.48;;;21.60;56.00;;;;;;5052597;28;20164;-71
2021/08/26 10:33:28;;;;;;;7.63;1.27;;;21.60;56.00;;;;;;5052697;28;20104;-70
2021/08/26 10:35:55;;;;;;;5.18;1.55;;;21.60;56.00;;;;;;5053067;28;20106;-72
2021/08/26 10:38:32;;;;;;;6.60;1.52;;;21.60;55.90;;;;;;5054453;28;20033;-71
2021/08/26 10:41:19;;;;;;;4.47;1.50;;;21.70;56.00;;;;;;5054594;28;20099;-71
2021/08/26 10:43:53;;;;;;;3.33;1.00;;;21.70;55.90;;;;;;5053527;28;20033;-71
2021/08/26 10:46:45;;;;;;;3.00;1.27;;;21.70;55.90;;;;;;5054339;28;20029;-71
2021/08/26 10:49:11;;;;;;;3.85;1.13;;;21.70;55.90;;;;;;5054190;28;20111;-71
2021/08/26 10:51:49;;;;;;;6.10;1.42;;;21.70;55.90;;;;;;5054199;28;20106;-69
2021/08/26 10:54:26;;;;;;;3.88;1.15;;;21.70;55.90;;;;;;5054322;28;20025;-71
2021/08/26 10:56:52;;;;;;;5.90;1.50;;;21.70;56.00;;;;;;5054113;28;20372;-70
2021/08/26 10:59:32;;;;;;;6.05;1.75;;;21.70;56.00;;;;;;5052934;28;20496;-71
2021/08/26 11:01:58;;;;;;;5.68;1.23;;;21.70;56.00;;;;;;5053744;28;20481;-71
2021/08/26 11:04:30;;;;;;;4.90;1.55;;;21.70;56.00;;;;;;5053726;28;20026;-70
2021/08/26 11:06:57;;;;;;;4.43;1.30;;;21.70;56.00;;;;;;5052115;28;20029;-71
2021/08/26 11:09:28;;;;;;;4.07;1.35;;;21.70;56.00;;;;;;5053780;28;20021;-71
2021/08/26 11:12:03;;;;;;;3.95;1.20;;;21.70;56.00;;;;;;5053857;28;20025;-70
2021/08/26 11:14:30;;;;;;;3.47;1.23;;;21.70;56.00;;;;;;5054032;28;20037;-71
2021/08/26 11:17:05;;;;;;;3.50;1.10;;;21.70;56.00;;;;;;5053550;28;20025;-71
2021/08/26 11:19:34;;;;;;;5.32;1.35;;;21.70;56.00;;;;;;5053612;28;20033;-71
2021/08/26 11:22:03;;;;;;;5.75;1.65;;;21.70;56.10;;;;;;5053589;28;20017;-71
2021/08/26 11:24:28;;;;;;;4.32;1.10;;;21.70;55.90;;;;;;5053512;28;20036;-70
2021/08/26 11:26:54;;;;;;;4.25;1.30;;;21.70;55.90;;;;;;5053376;28;20033;-71
2021/08/26 11:29:20;;;;;;;4.15;1.30;;;21.70;55.90;;;;;;5053217;28;20028;-71
2021/08/26 11:31:54;;;;;;;3.25;1.30;;;21.80;55.90;;;;;;5053171;28;20074;-71
2021/08/26 11:34:23;;;;;;;5.72;1.42;;;21.80;55.90;;;;;;5051728;28;20472;-67
2021/08/26 11:37:04;;;;;;;5.03;1.40;;;21.80;55.90;;;;;;5052888;28;20515;-70
2021/08/26 11:39:36;;;;;;;8.48;2.58;;;21.70;56.00;;;;;;5051256;28;20546;-69
2021/08/26 11:42:06;;;;;;;4.25;1.30;;;21.80;56.00;;;;;;5052654;28;20025;-70
2021/08/26 11:44:32;;;;;;;5.03;1.33;;;21.80;55.90;;;;;;5052369;28;20045;-69
2021/08/26 11:47:01;;;;;;;5.32;1.23;;;21.80;55.90;;;;;;5052089;28;20025;-70
2021/08/26 11:49:38;;;;;;;5.85;1.30;;;21.80;55.90;;;;;;5050552;28;20025;-67
2021/08/26 11:52:09;;;;;;;5.35;1.48;;;21.80;55.90;;;;;;5052314;28;20036;-69
2021/08/26 11:54:41;;;;;;;3.47;1.25;;;21.80;55.80;;;;;;5052106;28;20017;-70
2021/08/26 11:57:07;;;;;;;5.05;1.52;;;21.90;55.90;;;;;;5050999;28;20025;-70
2021/08/26 11:59:35;;;;;;;6.15;1.55;;;21.90;55.90;;;;;;5050524;28;20431;-69
2021/08/26 12:02:18;;;;;;;4.85;1.50;;;21.90;55.90;;;;;;5052429;28;20031;-70
2021/08/26 12:04:51;;;;;;;4.13;1.17;;;21.90;55.90;;;;;;5052729;28;20021;-74
2021/08/26 12:07:28;;;;;;;3.67;1.00;;;22.00;55.80;;;;;;5051733;28;20107;-70
2021/08/26 12:10:18;;;;;;;5.57;1.35;;;22.00;55.70;;;;;;5051916;28;20031;-72
2021/08/26 12:12:55;;;;;;;6.38;1.40;;;22.10;55.50;;;;;;5052026;28;20041;-76
2021/08/26 12:15:45;;;;;;;6.32;1.63;;;22.20;55.40;;;;;;5051888;28;20025;-75
2021/08/26 12:18:24;;;;;;;3.83;1.48;;;22.30;55.20;;;;;;5052695;28;20024;-73
2021/08/26 12:21:05;;;;;;;4.47;1.08;;;22.30;55.10;;;;;;5051235;28;20037;-72
2021/08/26 12:23:33;;;;;;;6.57;1.40;;;22.30;55.20;;;;;;5052469;28;20025;-74
2021/08/26 12:26:05;;;;;;;4.15;1.27;;;22.30;55.20;;;;;;5052838;28;20103;-76
2021/08/26 12:28:43;;;;;;;6.47;1.58;;;22.20;55.20;;;;;;5052824;28;20384;-71
2021/08/26 12:31:14;;;;;;;3.08;1.20;;;22.30;55.20;;;;;;5051989;28;20419;-69
2021/08/26 12:34:03;;;;;;;4.60;1.40;;;22.30;55.30;;;;;;5051754;28;20025;-70
2021/08/26 12:36:30;;;;;;;4.95;1.30;;;22.20;55.30;;;;;;5051271;28;20048;-71
2021/08/26 12:38:56;;;;;;;4.82;1.25;;;22.30;55.30;;;;;;5051915;28;20108;-71
2021/08/26 12:41:23;;;;;;;7.45;1.88;;;22.20;55.40;;;;;;5051771;28;20512;-71
2021/08/26 12:43:52;;;;;;;2.88;1.20;;;22.30;55.40;;;;;;5051797;28;20035;-71
2021/08/26 12:46:23;;;;;;;4.43;1.50;;;22.30;55.40;;;;;;5051360;28;20027;-71
2021/08/26 12:48:51;;;;;;;5.13;1.63;;;22.30;55.30;;;;;;5052017;28;20028;-71
2021/08/26 12:51:25;;;;;;;3.10;1.13;;;22.40;55.10;;;;;;5050373;28;20025;-72
2021/08/26 12:54:03;;;;;;;3.05;1.05;;;22.50;55.00;;;;;;5051692;28;20021;-71